Kerrick, TX (79051)

8:58 AM CST on November 23, 2014 (GMT -0600)
Dalhart Municipal | Change Station
CLOSE
Current Station
Airport
Location: Dalhart,
Elevation: 3990 ft
Nearby Weather Stations
Active Advisory: Wind Advisory

Elev 3990 ft 36.03 °N, 102.55 °W | Updated 5 minutes ago

Mostly Cloudy
Mostly Cloudy
48 °F
Feels Like 48 °F
N
29
Wind Variable Wind from North
Gusts 39 mph

Today
High -- | Low -- °F
--% Chance of Precip.
Yesterday
High -- | Low -- °F
Precip. -- in
7:34 AM 5:35 PM
New Moon, 1% visible
Pressure 29.59 in
Visibility 10.0 miles
Clouds Mostly Cloudy 11000 ft
Dew Point 27 °F
Humidity 44%
Rainfall 0.00 in
Snow Depth Not available.
UV 0 out of 12
Pollen 6.30 out of 12
Air Quality Not available.
Flu Activity Not available.
METAR KDHT 231453Z AUTO 36025G34KT 10SM BKN110 09/M03 A2963 RMK AO2 PK WND 36037/1429 SLP019 T00891028 53039

More Conditions Fewer Conditions

Pressure 29.59 in
Visibility 10.0 miles
Clouds Mostly Cloudy 11000 ft
Dew Point 27 °F
Humidity 44%
Rainfall 0.00 in
Snow Depth Not available.
UV 0 out of 12
Pollen 6.30 out of 12
Air Quality Not available.
Flu Activity Not available.
METAR KDHT 231453Z AUTO 36025G34KT 10SM BKN110 09/M03 A2963 RMK AO2 PK WND 36037/1429 SLP019 T00891028 53039

More Conditions Fewer Conditions

10-Day Weather Forecast

Almanac

Astronomy

Nov. 23, 2014 Rise Set
Actual Time
Civil Twilight
Nautical Twilight
Astronomical Twilight
Moon
Length of Visible Light
Length of Day
Tomorrow will be .
, % of the Moon is Illuminated

Today's Extremes

State Highs State Lows

Community

WunderPhotos

Upload Photos

1,773,078 photos uploaded!

WunderBlogs® & News

Nearby

Air Quality

  Air Quality AQ Index Pollutant
Not available.

Snow Depth

Station Depth Elevation

Earthquake Activity

City Distance Mag. Time & Date
Minimum magnitude displayed is 2.5.

Coastal Water Temperatures

Place Temperature

Nearby Weather Stations